createdAt,value
2018-03-14T00:00:14.924Z,5.90
2018-03-14T00:02:42.437Z,5.90
2018-03-14T00:05:09.992Z,5.90
2018-03-14T00:07:37.569Z,5.90
2018-03-14T00:10:05.523Z,5.80
2018-03-14T00:12:34.023Z,5.80
2018-03-14T00:15:01.977Z,5.80
2018-03-14T00:17:29.506Z,5.80
2018-03-14T00:19:57.061Z,5.90
2018-03-14T00:22:32.399Z,5.80
2018-03-14T00:24:59.955Z,5.80
2018-03-14T00:27:27.487Z,5.80
2018-03-14T00:29:55.011Z,5.70
2018-03-14T00:32:22.572Z,5.70
2018-03-14T00:34:50.098Z,5.80
2018-03-14T00:37:17.650Z,5.80
2018-03-14T00:39:45.187Z,5.70
2018-03-14T00:42:12.881Z,5.80
2018-03-14T00:44:40.420Z,5.80
2018-03-14T00:47:07.981Z,5.80
2018-03-14T00:49:35.541Z,5.80
2018-03-14T00:52:03.086Z,5.80
2018-03-14T00:54:30.620Z,5.90
2018-03-14T00:56:58.641Z,6.00
2018-03-14T00:59:26.201Z,6.00
2018-03-14T01:01:53.767Z,6.00
2018-03-14T01:04:21.316Z,5.60
2018-03-14T01:06:48.855Z,5.50
2018-03-14T01:09:16.432Z,5.40
2018-03-14T01:11:43.975Z,5.40
2018-03-14T01:14:11.504Z,5.40
2018-03-14T01:16:39.431Z,5.30
2018-03-14T01:19:06.991Z,5.20
2018-03-14T01:21:34.522Z,5.20
2018-03-14T01:24:02.077Z,5.00
2018-03-14T01:26:29.621Z,4.90
2018-03-14T01:28:57.170Z,4.90
2018-03-14T01:31:24.713Z,4.90
2018-03-14T01:33:52.656Z,5.00
2018-03-14T01:36:20.190Z,5.00
2018-03-14T01:38:47.751Z,5.10
2018-03-14T01:41:15.898Z,5.00
2018-03-14T01:43:43.433Z,5.00
2018-03-14T01:46:11.400Z,4.90
2018-03-14T01:48:39.316Z,4.90
2018-03-14T01:51:06.864Z,4.90
2018-03-14T01:53:34.473Z,4.90
2018-03-14T01:56:02.021Z,4.90
2018-03-14T01:58:29.590Z,4.90
2018-03-14T02:00:57.147Z,5.00
2018-03-14T02:03:24.680Z,5.10
2018-03-14T02:05:52.238Z,5.00
2018-03-14T02:08:19.781Z,5.00
2018-03-14T02:10:47.325Z,5.00
2018-03-14T02:13:14.852Z,5.10
2018-03-14T02:15:42.848Z,5.10
2018-03-14T02:18:10.395Z,5.00
2018-03-14T02:20:37.958Z,5.00
2018-03-14T02:25:45.264Z,5.00
2018-03-14T02:28:12.777Z,5.00
2018-03-14T02:57:16.279Z,5.00
2018-03-14T02:59:44.207Z,5.10
2018-03-14T03:02:11.723Z,5.20
2018-03-14T03:04:39.256Z,5.20
2018-03-14T03:07:07.169Z,5.20
2018-03-14T03:09:34.830Z,5.20
2018-03-14T03:12:02.351Z,5.30
2018-03-14T03:14:30.280Z,5.30
2018-03-14T03:19:42.915Z,5.40
2018-03-14T03:22:10.436Z,5.30
2018-03-14T03:24:37.971Z,5.30
2018-03-14T03:27:05.877Z,5.30
2018-03-14T03:29:33.522Z,5.30
2018-03-14T03:32:01.050Z,5.30
2018-03-14T03:34:29.067Z,5.20
2018-03-14T03:36:56.627Z,5.20
2018-03-14T03:39:24.139Z,5.20
2018-03-14T03:41:52.073Z,5.30
2018-03-14T03:44:19.575Z,5.30
2018-03-14T03:46:47.098Z,5.20
2018-03-14T03:49:14.719Z,5.20
2018-03-14T03:51:42.267Z,5.00
2018-03-14T03:54:09.775Z,5.00
2018-03-14T03:56:37.321Z,5.00
2018-03-14T03:59:04.832Z,5.00
2018-03-14T04:01:32.402Z,5.10
2018-03-14T04:03:59.947Z,5.10
2018-03-14T04:06:27.475Z,5.20
2018-03-14T04:08:55.428Z,5.30
2018-03-14T04:11:22.940Z,5.20
2018-03-14T04:13:50.495Z,5.30
2018-03-14T04:16:18.020Z,5.20
2018-03-14T04:18:45.977Z,5.20
2018-03-14T04:21:13.591Z,5.20
2018-03-14T04:23:41.129Z,5.20
2018-03-14T04:26:08.643Z,5.20
2018-03-14T04:28:36.228Z,5.10
2018-03-14T04:31:04.124Z,5.00
2018-03-14T04:33:31.647Z,5.10
2018-03-14T04:35:59.612Z,5.00
2018-03-14T04:38:27.527Z,5.10
2018-03-14T04:40:55.078Z,5.10
2018-03-14T04:43:22.640Z,5.10
2018-03-14T04:45:50.176Z,5.10
2018-03-14T04:48:18.075Z,5.20
2018-03-14T04:50:45.594Z,5.20
2018-03-14T04:53:13.503Z,5.00
2018-03-14T04:55:41.053Z,5.00
2018-03-14T04:58:08.656Z,5.00
2018-03-14T05:00:36.216Z,5.00
2018-03-14T05:03:04.148Z,5.00
2018-03-14T05:05:31.667Z,5.00
2018-03-14T05:07:59.575Z,5.10
2018-03-14T05:10:27.136Z,5.10
2018-03-14T05:12:54.681Z,5.10
2018-03-14T05:15:22.203Z,5.00
2018-03-14T05:17:50.127Z,5.10
2018-03-14T05:20:17.650Z,5.10
2018-03-14T05:22:45.176Z,5.10
2018-03-14T05:25:13.067Z,5.20
2018-03-14T05:27:40.600Z,5.20
2018-03-14T05:30:08.504Z,5.40
2018-03-14T05:32:36.027Z,5.30
2018-03-14T05:35:03.928Z,5.40
2018-03-14T05:37:31.461Z,5.40
2018-03-14T05:39:58.988Z,5.50
2018-03-14T05:42:26.812Z,5.50
2018-03-14T05:44:54.360Z,5.40
2018-03-14T05:47:21.903Z,5.30
2018-03-14T05:49:49.839Z,5.20
2018-03-14T05:52:17.363Z,5.20
2018-03-14T05:54:44.892Z,5.30
2018-03-14T05:57:12.464Z,5.30
2018-03-14T05:59:40.013Z,5.20
2018-03-14T06:02:07.907Z,5.20
2018-03-14T06:04:35.467Z,5.20
2018-03-14T06:07:02.992Z,5.10
2018-03-14T06:09:30.522Z,5.00
2018-03-14T06:11:58.550Z,4.90
2018-03-14T06:14:26.082Z,4.90
2018-03-14T06:16:53.608Z,4.90
2018-03-14T06:19:21.135Z,4.90
2018-03-14T06:21:48.683Z,4.90
2018-03-14T06:24:16.224Z,4.90
2018-03-14T06:26:44.165Z,4.90
2018-03-14T06:29:12.079Z,4.90
2018-03-14T06:31:39.586Z,5.00
2018-03-14T06:34:07.507Z,5.00
2018-03-14T06:36:35.018Z,4.90
2018-03-14T06:39:02.947Z,4.90
2018-03-14T06:41:30.490Z,5.00
2018-03-14T06:43:58.047Z,5.00
2018-03-14T06:46:25.693Z,5.10
2018-03-14T06:48:53.220Z,5.20
2018-03-14T06:51:21.152Z,5.30
2018-03-14T06:53:48.647Z,5.30
2018-03-14T06:56:16.651Z,5.30
2018-03-14T06:58:55.962Z,5.30
2018-03-14T07:01:35.388Z,5.30
2018-03-14T07:04:15.034Z,5.30
2018-03-14T07:06:42.590Z,5.20
2018-03-14T07:09:10.512Z,5.20
2018-03-14T07:11:38.039Z,5.20
2018-03-14T07:14:05.545Z,5.20
2018-03-14T07:16:33.072Z,5.10
2018-03-14T07:19:00.582Z,5.10
2018-03-14T07:21:28.587Z,5.00
2018-03-14T07:23:56.084Z,5.00
2018-03-14T07:26:23.610Z,5.00
2018-03-14T07:28:51.144Z,5.00
2018-03-14T07:31:18.816Z,5.00
2018-03-14T07:33:46.427Z,5.00
2018-03-14T07:36:13.960Z,5.00
2018-03-14T07:38:41.495Z,5.10
2018-03-14T07:41:09.003Z,5.10
2018-03-14T07:43:36.531Z,5.10
2018-03-14T07:46:04.050Z,5.30
2018-03-14T07:48:31.579Z,5.50
2018-03-14T07:50:59.090Z,5.70
2018-03-14T07:53:27.613Z,5.70
2018-03-14T07:55:55.528Z,5.70
2018-03-14T07:58:23.056Z,5.70
2018-03-14T08:00:50.963Z,5.60
2018-03-14T08:03:18.483Z,5.60
2018-03-14T08:05:46.440Z,5.50
2018-03-14T08:08:13.942Z,5.60
2018-03-14T08:10:41.451Z,5.60
2018-03-14T08:13:09.476Z,5.70
2018-03-14T08:15:36.996Z,5.70
2018-03-14T08:18:04.935Z,5.70
2018-03-14T08:20:32.460Z,5.80
2018-03-14T08:22:59.979Z,5.80
2018-03-14T08:25:27.884Z,5.80
2018-03-14T08:27:55.406Z,5.90
2018-03-14T08:30:23.315Z,5.90
2018-03-14T08:32:50.982Z,5.90
2018-03-14T08:35:18.491Z,6.00
2018-03-14T08:37:46.507Z,6.00
2018-03-14T08:40:14.179Z,5.90
2018-03-14T08:42:41.813Z,5.90
2018-03-14T08:45:09.343Z,5.90
2018-03-14T08:47:36.856Z,5.90
2018-03-14T08:50:04.395Z,6.00
2018-03-14T08:52:31.899Z,6.00
2018-03-14T08:54:59.827Z,6.00
2018-03-14T08:57:27.338Z,6.00
2018-03-14T08:59:54.875Z,6.00
2018-03-14T09:02:22.789Z,6.00
2018-03-14T09:04:50.334Z,6.00
2018-03-14T09:07:17.844Z,5.90
2018-03-14T09:09:45.361Z,5.90
2018-03-14T09:12:12.863Z,6.00
2018-03-14T09:14:40.366Z,6.30
2018-03-14T09:17:07.906Z,6.60
2018-03-14T09:19:35.803Z,6.90
2018-03-14T09:22:03.335Z,6.90
2018-03-14T09:24:31.225Z,7.10
2018-03-14T09:26:58.759Z,7.10
2018-03-14T09:29:26.684Z,7.40
2018-03-14T09:31:59.203Z,7.40
2018-03-14T09:35:02.296Z,7.70
2018-03-14T09:37:29.887Z,7.90
2018-03-14T09:39:57.387Z,8.00
2018-03-14T09:42:25.314Z,8.30
2018-03-14T09:44:52.868Z,8.30
2018-03-14T09:47:20.480Z,8.50
2018-03-14T09:49:48.375Z,8.70
2018-03-14T09:52:15.888Z,8.50
2018-03-14T09:54:43.449Z,8.30
2018-03-14T09:57:11.026Z,8.20
2018-03-14T09:59:38.545Z,7.90
2018-03-14T10:02:06.072Z,7.90
2018-03-14T10:04:33.835Z,7.80
2018-03-14T10:07:01.354Z,7.60
2018-03-14T10:09:28.879Z,7.60
2018-03-14T10:11:56.377Z,7.60
2018-03-14T10:14:24.307Z,7.80
2018-03-14T10:17:19.100Z,7.80
2018-03-14T10:19:46.634Z,7.80
2018-03-14T10:22:14.223Z,7.90
2018-03-14T10:24:41.761Z,7.70
2018-03-14T10:27:09.283Z,7.60
2018-03-14T10:29:37.193Z,7.60
2018-03-14T10:32:04.764Z,7.70
2018-03-14T10:34:32.272Z,7.80
2018-03-14T10:36:59.895Z,8.00
2018-03-14T10:39:27.418Z,8.40
2018-03-14T10:41:54.953Z,8.80
2018-03-14T10:44:22.475Z,9.00
2018-03-14T10:46:50.004Z,9.20
2018-03-14T10:49:17.535Z,9.40
2018-03-14T10:51:45.087Z,9.70
2018-03-14T10:54:12.720Z,10.40
2018-03-14T10:56:40.707Z,11.10
2018-03-14T10:59:08.639Z,11.10
2018-03-14T11:04:38.111Z,10.80
2018-03-14T11:07:06.046Z,10.20
2018-03-14T11:09:33.947Z,9.90
2018-03-14T11:12:01.630Z,9.90
2018-03-14T11:14:29.126Z,9.70
2018-03-14T11:16:56.627Z,9.70
2018-03-14T11:19:24.194Z,9.60
2018-03-14T11:21:51.690Z,9.30
2018-03-14T11:24:19.217Z,9.30
2018-03-14T11:26:46.726Z,9.40
2018-03-14T11:29:14.266Z,9.20
2018-03-14T11:31:41.766Z,9.10
2018-03-14T11:34:09.334Z,9.10
2018-03-14T11:36:36.835Z,9.20
2018-03-14T11:39:04.358Z,9.00
2018-03-14T11:41:31.878Z,9.00
2018-03-14T11:43:59.539Z,9.00
2018-03-14T11:46:27.196Z,8.90
2018-03-14T11:48:54.726Z,8.90
2018-03-14T11:51:22.619Z,8.90
2018-03-14T11:53:50.111Z,9.00
2018-03-14T11:56:17.636Z,9.10
2018-03-14T11:58:45.135Z,9.20
2018-03-14T12:01:12.750Z,9.30
2018-03-14T12:03:40.259Z,9.30
2018-03-14T12:06:07.861Z,9.30
2018-03-14T12:08:35.363Z,9.30
2018-03-14T12:11:02.889Z,9.30
2018-03-14T12:13:30.396Z,9.40
2018-03-14T12:15:57.918Z,9.40
2018-03-14T12:18:25.415Z,9.50
2018-03-14T12:20:53.404Z,9.40
2018-03-14T12:23:20.906Z,9.30
2018-03-14T12:25:48.455Z,9.40
2018-03-14T12:28:15.959Z,9.30
2018-03-14T12:30:43.472Z,9.20
2018-03-14T12:33:10.965Z,9.10
2018-03-14T12:35:38.539Z,9.00
2018-03-14T12:38:06.615Z,8.90
2018-03-14T12:40:34.259Z,8.90
2018-03-14T12:43:01.935Z,9.00
2018-03-14T12:45:29.422Z,9.00
2018-03-14T12:47:56.951Z,9.10
2018-03-14T12:50:24.469Z,9.20
2018-03-14T12:52:52.023Z,9.30
2018-03-14T12:55:19.530Z,9.20
2018-03-14T12:57:47.254Z,9.40
2018-03-14T13:00:14.759Z,9.60
2018-03-14T13:02:42.364Z,9.70
2018-03-14T13:05:10.292Z,9.80
2018-03-14T13:07:37.846Z,9.80
2018-03-14T13:10:05.371Z,9.80
2018-03-14T13:12:33.303Z,9.80
2018-03-14T13:15:00.814Z,9.80
2018-03-14T13:17:28.319Z,9.90
2018-03-14T13:19:55.849Z,9.90
2018-03-14T13:22:23.749Z,10.00
2018-03-14T13:24:51.274Z,10.00
2018-03-14T13:27:18.971Z,9.90
2018-03-14T13:29:46.493Z,10.00
2018-03-14T13:32:14.394Z,10.10
2018-03-14T13:34:41.925Z,10.20
2018-03-14T13:37:09.586Z,10.30
2018-03-14T13:39:37.253Z,10.20
2018-03-14T13:42:04.912Z,10.20
2018-03-14T13:44:32.577Z,10.10
2018-03-14T13:47:00.238Z,10.00
2018-03-14T13:49:27.909Z,9.80
2018-03-14T13:51:55.422Z,9.70
2018-03-14T13:54:22.948Z,9.60
2018-03-14T13:56:50.473Z,9.50
2018-03-14T13:59:17.983Z,9.50
2018-03-14T14:01:45.542Z,9.60
2018-03-14T14:04:13.215Z,9.70
2018-03-14T14:06:40.878Z,9.70
2018-03-14T14:09:08.530Z,9.80
2018-03-14T14:11:36.615Z,9.80
2018-03-14T14:14:04.097Z,9.80
2018-03-14T14:16:31.618Z,9.80
2018-03-14T14:18:59.124Z,9.90
2018-03-14T14:21:26.840Z,9.90
2018-03-14T14:23:54.339Z,9.90
2018-03-14T14:26:21.935Z,9.90
2018-03-14T14:28:49.438Z,9.70
2018-03-14T14:31:16.944Z,9.70
2018-03-14T14:33:44.488Z,9.60
2018-03-14T14:36:11.998Z,9.60
2018-03-14T14:38:39.619Z,9.50
2018-03-14T14:41:07.115Z,9.40
2018-03-14T14:43:34.631Z,9.30
2018-03-14T14:46:02.126Z,9.40
2018-03-14T14:48:29.630Z,9.40
2018-03-14T14:50:57.153Z,9.30
2018-03-14T14:53:24.675Z,9.30
2018-03-14T14:55:52.164Z,9.30
2018-03-14T14:58:19.691Z,9.30
2018-03-14T15:00:47.320Z,9.30
2018-03-14T15:03:14.876Z,9.30
2018-03-14T15:05:42.405Z,9.40
2018-03-14T15:08:09.916Z,9.40
2018-03-14T15:10:37.435Z,9.40
2018-03-14T15:13:04.947Z,9.40
2018-03-14T15:15:32.472Z,9.40
2018-03-14T15:18:00.003Z,9.30
2018-03-14T15:20:27.987Z,9.30
2018-03-14T15:22:55.590Z,9.20
2018-03-14T15:25:23.290Z,9.20
2018-03-14T15:27:50.840Z,9.20
2018-03-14T15:30:18.330Z,9.20
2018-03-14T15:32:45.836Z,9.20
2018-03-14T15:35:13.366Z,9.10
2018-03-14T15:37:40.866Z,8.90
2018-03-14T15:40:08.398Z,8.80
2018-03-14T15:42:35.902Z,8.80
2018-03-14T15:45:03.418Z,8.80
2018-03-14T15:47:31.333Z,8.70
2018-03-14T15:49:58.868Z,8.60
2018-03-14T15:52:26.451Z,8.60
2018-03-14T15:54:53.953Z,8.50
2018-03-14T15:57:21.636Z,8.50
2018-03-14T15:59:49.130Z,8.40
2018-03-14T16:02:16.738Z,8.30
2018-03-14T16:04:44.427Z,8.30
2018-03-14T16:07:11.934Z,8.40
2018-03-14T16:09:39.916Z,8.20
2018-03-14T16:12:07.988Z,8.10
2018-03-14T16:14:35.498Z,8.00
2018-03-14T16:17:03.019Z,8.00
2018-03-14T16:19:30.511Z,7.90
2018-03-14T16:21:58.020Z,7.90
2018-03-14T16:24:25.519Z,7.90
2018-03-14T16:26:53.046Z,7.80
2018-03-14T16:29:20.539Z,7.80
2018-03-14T16:31:48.030Z,7.80
2018-03-14T16:34:15.558Z,7.80
2018-03-14T16:36:43.446Z,7.70
2018-03-14T16:39:10.978Z,7.60
2018-03-14T16:41:38.471Z,7.60
2018-03-14T16:44:06.129Z,7.50
2018-03-14T16:46:33.631Z,7.40
2018-03-14T16:49:01.148Z,7.40
2018-03-14T16:51:28.647Z,7.30
2018-03-14T16:53:56.343Z,7.20
2018-03-14T16:56:23.831Z,7.10
2018-03-14T16:58:51.465Z,7.00
2018-03-14T17:01:19.351Z,6.90
2018-03-14T17:03:46.880Z,6.90
2018-03-14T17:06:14.384Z,6.90
2018-03-14T17:08:41.906Z,6.80
2018-03-14T17:11:09.801Z,6.80
2018-03-14T17:13:37.414Z,6.80
2018-03-14T17:16:04.953Z,6.70
2018-03-14T17:18:32.526Z,6.70
2018-03-14T17:21:00.178Z,6.70
2018-03-14T17:23:27.854Z,6.70
2018-03-14T17:25:55.382Z,6.60
2018-03-14T17:28:22.957Z,6.50
2018-03-14T17:30:50.485Z,6.50
2018-03-14T17:33:18.062Z,6.40
2018-03-14T17:35:45.580Z,6.40
2018-03-14T17:38:13.090Z,6.30
2018-03-14T17:40:40.618Z,6.30
2018-03-14T17:43:08.174Z,6.20
2018-03-14T17:45:35.658Z,6.10
2018-03-14T17:48:03.162Z,6.10
2018-03-14T17:50:30.687Z,6.00
2018-03-14T17:52:58.961Z,5.90
2018-03-14T17:55:26.488Z,5.90
2018-03-14T17:57:53.986Z,5.70
2018-03-14T18:00:21.483Z,5.70
2018-03-14T18:02:49.473Z,5.60
2018-03-14T18:05:16.980Z,5.60
2018-03-14T18:07:44.903Z,5.50
2018-03-14T18:10:12.398Z,5.50
2018-03-14T18:12:40.102Z,5.40
2018-03-14T18:15:07.598Z,5.40
2018-03-14T18:17:35.109Z,5.40
2018-03-14T18:20:03.023Z,5.30
2018-03-14T18:22:30.955Z,5.30
2018-03-14T18:24:58.467Z,5.30
2018-03-14T18:27:26.421Z,5.20
2018-03-14T18:29:53.894Z,5.20
2018-03-14T18:32:21.563Z,5.20
2018-03-14T18:34:49.061Z,5.10
2018-03-14T18:37:16.895Z,5.10
2018-03-14T18:39:44.489Z,5.00
2018-03-14T18:42:12.430Z,4.90
2018-03-14T18:44:39.942Z,4.90
2018-03-14T18:47:07.470Z,4.90
2018-03-14T18:49:34.967Z,4.80
2018-03-14T18:52:02.480Z,4.70
2018-03-14T18:54:30.007Z,4.70
2018-03-14T18:56:57.534Z,4.60
2018-03-14T18:59:25.063Z,4.70
2018-03-14T19:01:52.964Z,4.80
2018-03-14T19:04:20.521Z,4.80
2018-03-14T19:06:48.013Z,4.70
2018-03-14T19:09:15.538Z,4.70
2018-03-14T19:11:43.039Z,4.70
2018-03-14T19:14:10.581Z,4.60
2018-03-14T19:16:38.087Z,4.50
2018-03-14T19:19:05.595Z,4.40
2018-03-14T19:21:33.133Z,4.30
2018-03-14T19:24:00.750Z,4.20
2018-03-14T19:26:28.426Z,4.10
2018-03-14T19:28:55.979Z,4.00
2018-03-14T19:31:23.543Z,4.00
2018-03-14T19:33:51.219Z,3.90
2018-03-14T19:36:19.216Z,3.80
2018-03-14T19:38:46.764Z,3.70
2018-03-14T19:41:14.705Z,3.70
2018-03-14T19:43:42.239Z,3.70
2018-03-14T19:46:09.767Z,3.60
2018-03-14T19:48:37.367Z,3.60
2018-03-14T19:51:05.000Z,3.60
2018-03-14T19:53:32.521Z,3.60
2018-03-14T19:56:00.076Z,3.70
2018-03-14T19:58:27.979Z,3.70
2018-03-14T20:00:55.545Z,3.80
2018-03-14T20:03:23.066Z,3.90
2018-03-14T20:05:51.087Z,3.90
2018-03-14T20:08:18.591Z,3.90
2018-03-14T20:10:46.494Z,3.80
2018-03-14T20:13:14.039Z,3.80
2018-03-14T20:15:41.627Z,3.90
2018-03-14T20:18:09.193Z,3.90
2018-03-14T20:20:36.768Z,3.90
2018-03-14T20:23:04.313Z,4.00
2018-03-14T20:25:31.828Z,4.10
2018-03-14T20:27:59.360Z,4.10
2018-03-14T20:30:27.300Z,4.10
2018-03-14T20:32:54.873Z,4.10
2018-03-14T20:35:22.455Z,4.10
2018-03-14T20:37:50.411Z,4.10
2018-03-14T20:40:18.303Z,4.20
2018-03-14T20:42:45.868Z,4.20
2018-03-14T20:45:13.405Z,4.20
2018-03-14T20:47:41.500Z,4.20
2018-03-14T20:50:09.603Z,4.20
2018-03-14T20:52:37.143Z,4.20
2018-03-14T20:55:05.068Z,4.10
2018-03-14T20:57:33.022Z,4.00
2018-03-14T21:00:00.634Z,4.00
2018-03-14T21:02:28.153Z,4.00
2018-03-14T21:04:56.151Z,4.00
2018-03-14T21:07:23.707Z,4.00
2018-03-14T21:09:51.236Z,4.00
2018-03-14T21:12:19.162Z,3.90
2018-03-14T21:14:46.703Z,3.70
2018-03-14T21:17:14.225Z,3.70
2018-03-14T21:19:42.235Z,3.60
2018-03-14T21:22:09.815Z,3.60
2018-03-14T21:24:37.346Z,3.60
2018-03-14T21:27:05.082Z,3.50
2018-03-14T21:29:33.011Z,3.50
2018-03-14T21:32:00.529Z,3.50
2018-03-14T21:34:28.066Z,3.60
2018-03-14T21:36:55.976Z,3.60
2018-03-14T21:39:23.574Z,3.70
2018-03-14T21:41:51.064Z,3.70
2018-03-14T21:44:18.595Z,3.70
2018-03-14T21:46:46.540Z,3.70
2018-03-14T21:49:14.043Z,3.70
2018-03-14T21:51:41.586Z,3.60
2018-03-14T21:54:09.607Z,3.40
2018-03-14T21:56:37.158Z,3.20
2018-03-14T21:59:04.683Z,3.10
2018-03-14T22:01:32.219Z,3.00
2018-03-14T22:04:00.152Z,2.90
2018-03-14T22:06:27.765Z,2.80
2018-03-14T22:08:55.682Z,2.70
2018-03-14T22:11:23.249Z,2.70
2018-03-14T22:13:50.768Z,2.70
2018-03-14T22:16:18.336Z,2.60
2018-03-14T22:18:45.885Z,2.50
2018-03-14T22:21:13.406Z,2.40
2018-03-14T22:23:41.338Z,2.40
2018-03-14T22:26:18.904Z,2.40
2018-03-14T22:28:46.453Z,2.40
2018-03-14T22:31:13.971Z,2.50
2018-03-14T22:33:41.544Z,2.60
2018-03-14T22:36:09.462Z,2.60
2018-03-14T22:38:37.020Z,2.50
2018-03-14T22:41:04.770Z,2.60
2018-03-14T22:43:32.339Z,2.50
2018-03-14T22:45:59.912Z,2.50
2018-03-14T22:48:27.458Z,2.60
2018-03-14T22:50:54.989Z,2.60
2018-03-14T22:53:22.569Z,2.60
2018-03-14T22:55:50.859Z,2.70
2018-03-14T22:58:18.375Z,2.70
2018-03-14T23:00:46.692Z,2.70
2018-03-14T23:03:14.221Z,2.70
2018-03-14T23:05:41.749Z,2.80
2018-03-14T23:08:09.685Z,2.90
2018-03-14T23:10:37.276Z,2.80
2018-03-14T23:13:04.798Z,2.70
2018-03-14T23:15:32.593Z,2.80
2018-03-14T23:18:00.265Z,2.80
2018-03-14T23:20:28.258Z,2.80
2018-03-14T23:22:55.793Z,2.80
2018-03-14T23:25:23.892Z,2.70
2018-03-14T23:27:51.541Z,2.70
2018-03-14T23:30:19.121Z,2.80
2018-03-14T23:32:46.647Z,2.70
2018-03-14T23:35:14.563Z,2.50
2018-03-14T23:37:42.467Z,2.50
2018-03-14T23:40:09.989Z,2.40
2018-03-14T23:42:37.551Z,2.40
2018-03-14T23:45:05.063Z,2.40
2018-03-14T23:47:32.748Z,2.40
2018-03-14T23:50:00.298Z,2.40
2018-03-14T23:52:27.854Z,2.50
2018-03-14T23:54:55.367Z,2.50
2018-03-14T23:57:22.907Z,2.40
2018-03-14T23:59:50.433Z,2.30
